Laredo International Airport
KLRD : now visible

Airfield :











YOU CAN JOIN US ON...

 
LOGIN :

Register | Disclaimer

   EN    FR    IT 

 









Legend :    VFR   Marginal VFR   IFR   Intensive IFR   Very Intensive IFR
Visi :
Ceiling :
>= 8 km
>= 3000ft
5 to 8 km
1000 to 3000 ft
1500m to 5 km
500 to 1000 ft
800 to 1500m
200 to 500 ft
< 800m
< 200 ft
Symbols :   Thunderstorms  Fog  Heavy snow  Heavy precipitations  Wind > 20 kt






- Airport Elevation : 508 ft
- IATA code : LRD


KLRD - Laredo International

CURRENT METAR :
  • 071514Z 16016KT 10SM SCT026 30/22 A3006 RMK AO2

EXPIRED METARs :
  • 071456Z 14014KT 10SM BKN024 31/23 A3006 RMK AO2 SLP174 T03060228 51011
  • 071356Z 14014KT 10SM FEW016 28/23 A3005 RMK AO2 SLP171 T02830233
  • 071256Z 12008KT 10SM CLR 26/23 A3004 RMK AO2 SLP168 T02610233

TAF KLRD
Valid from the 07 at 12:00 until the 08 at 12:00 UTC


071127Z 0712/0812 14008KT P6SM SKC
FM071400 15010G15KT P6SM SCT030 SCT250
FM072200 12018G25KT P6SM VCTS SCT080CB
FM080200 13022G28KT P6SM FEW080 SCT250
FM080500 14018KT P6SM FEW250
FM080700 14010KT P6SM FEW250
KZHU FIR / North America



MET'MAP, your aeronautical weather chart ! - Copyright ORBIFLY December 2007 - Disclaimer

ORBIFLY MET'MAP TEAM :

Programming & Development : Alexandra Zaïnal
Original concept : Baudouin d'Aumeries
Technical & hardware support : Manuel Goepfert
Assistance : Marc-Olivier Méhu




SOURCES & CREDITS :

   NOAA       Earth
Advisory